Meteo Giornale » Osservazioni meteo Iran » Tabriz
ore: 23:00 - Osservazioni Meteo Tabriz
Lat. 38° 5' N Lon. 46° 17' E Alt. 1367 metri s.l.m.
19 °C
Poco Nuvoloso
Temp. 24 Ore
17 °C
29 °C
Est
9.3 Km/h
Dew point 10 °C
Umidità 55 %
Visibilità 10 Km
Il sole sorge alle ore 05:54
Il sole tramonta alle ore 18:55
| Data e Ora | Cielo e Fenomeni | T °C | DP °C | Um. % | Pres. hPa | Vis. km | Vento km/h | |
|---|---|---|---|---|---|---|---|---|
| Oggi h: 23:00 | Poco Nuvoloso | 19 | 10 | 55 | 1020 | 10 | E 9.3 | |
| Oggi h: 22:30 | Poco Nuvoloso | 19 | 10 | 55 | 1020 | 10 | NE 7.4 | |
| Oggi h: 22:00 | Poco Nuvoloso | 20 | 10 | 52 | 1020 | 10 | E 9.3 | |
| Oggi h: 21:30 | Poco Nuvoloso | 20 | 10 | 52 | 1020 | 10 | E/NE 14.8 | |
| Oggi h: 21:00 | Nuvoloso | 21 | 10 | 49 | 1020 | 10 | E 9.3 | |
| Oggi h: 20:30 | Nuvoloso | 22 | 10 | 46 | 1019 | 10 | E/NE 11.1 | |
| Oggi h: 20:00 | Nuvoloso | 22 | 10 | 46 | 1018 | 10 | NE 16.7 | |
| Oggi h: 19:30 | Pioggia nelle vicinanze | 23 | 10 | 43 | 1018 | 10 | NE 20.3 | |
| Oggi h: 19:00 | Pioggia nelle vicinanze | 23 | 10 | 43 | 1018 | 10 | N/NE 20.3 | |
| Oggi h: 18:30 | Pioggia nelle vicinanze | 24 | 10 | 41 | 1017 | 10 | N/NE 20.3 | |
| Oggi h: 18:00 | Pioggia nelle vicinanze | 25 | 10 | 38 | 1017 | 10 | N/NE 22.2 | |
| Oggi h: 17:30 | Pioggia nelle vicinanze | 25 | 9 | 36 | 1016 | 10 | N/NE 25.9 | |
| Oggi h: 17:00 | Pioggia nelle vicinanze | 27 | 10 | 34 | 1016 | 10 | N/NE 22.2 | |
| Oggi h: 16:30 | Nuvoloso | 27 | 9 | 32 | 1016 | 10 | N 5.5 | |
| Oggi h: 16:00 | Nuvoloso | 29 | 9 | 28 | 1016 | 10 | E 9.3 | |
| Oggi h: 15:30 | Nuvoloso | 29 | 9 | 28 | 1016 | 10 | E/SE 9.3 | |
| Oggi h: 15:00 | Nuvoloso | 29 | 9 | 28 | 1016 | 10 | N 11.1 | |
| Oggi h: 14:30 | Nuvoloso | 28 | 9 | 30 | 1017 | 10 | N 5.5 | |
| Oggi h: 14:00 | Nuvoloso | 28 | 10 | 32 | 1017 | 10 | E/NE 9.3 | |
| Oggi h: 13:30 | Nuvoloso | 28 | 10 | 32 | 1017 | 10 | S/SE 9.3 | |
| Oggi h: 13:00 | Nuvoloso | 26 | 9 | 34 | 1018 | 10 | SE 11.1 | |
| Oggi h: 12:30 | Nuvoloso | 26 | 10 | 36 | 1018 | 10 | SE 11.1 | |
| Oggi h: 12:00 | Poco Nuvoloso | 26 | 10 | 36 | 1018 | 10 | E 9.3 | |
| Oggi h: 11:30 | Poco Nuvoloso | 25 | 10 | 38 | 1018 | 10 | E 13 | |
| Oggi h: 11:00 | Poco Nuvoloso | 24 | 10 | 41 | 1019 | 10 | E 14.8 | |
| Oggi h: 10:30 | Nuvoloso | 24 | 10 | 41 | 1019 | 10 | E 16.7 | |
| Oggi h: 10:00 | Nuvoloso | 22 | 10 | 46 | 1019 | 10 | E 16.7 | |
| Oggi h: 09:30 | Nuvoloso | 22 | 10 | 46 | 1019 | 10 | E 18.5 | |
| Oggi h: 09:00 | Nuvoloso | 21 | 10 | 49 | 1019 | 10 | E 20.3 | |
| Oggi h: 08:30 | Nuvoloso | 21 | 10 | 49 | 1019 | 10 | E 16.7 | |
| Oggi h: 08:00 | Poco Nuvoloso | 20 | 10 | 52 | 1018 | 10 | E 16.7 | |
| Oggi h: 07:30 | Poco Nuvoloso | 19 | 10 | 55 | 1018 | 10 | E 18.5 | |
| Oggi h: 07:00 | Poco Nuvoloso | 19 | 10 | 55 | 1018 | 10 | E 14.8 | |
| Oggi h: 06:30 | Nuvoloso | 17 | 10 | 63 | 1018 | 10 | NE 11.1 | |
| Oggi h: 06:00 | Poco Nuvoloso | 17 | 10 | 63 | 1018 | 10 | E 11.1 | |
| Oggi h: 05:30 | Poco Nuvoloso | 17 | 10 | 63 | 1018 | 10 | E/NE 7.4 | |
| Oggi h: 05:00 | Sereno | 17 | 10 | 63 | 1018 | 10 | E 14.8 | |
| Oggi h: 04:30 | Sereno | 17 | 10 | 63 | 1017 | 10 | E 14.8 | |
| Oggi h: 04:00 | Sereno | 18 | 10 | 59 | 1017 | 10 | E/NE 16.7 | |
| Oggi h: 03:30 | Sereno | 17 | 10 | 63 | 1017 | 10 | E/NE 14.8 | |
| Oggi h: 03:00 | Sereno | 17 | 9 | 59 | 1017 | 10 | NE 14.8 | |
| Oggi h: 02:30 | Sereno | 17 | 9 | 59 | 1017 | 10 | NE 14.8 | |
| Oggi h: 02:00 | Sereno | 18 | 10 | 59 | 1017 | 10 | E/NE 18.5 | |
| Oggi h: 01:30 | Sereno | 18 | 10 | 59 | 1017 | 10 | E 11.1 | |
| Oggi h: 01:00 | Sereno | 17 | 9 | 59 | 1017 | 10 | NE 13 | |
| Oggi h: 00:30 | Sereno | 18 | 9 | 55 | 1018 | 10 | E/NE 16.7 | |



